Time;durP1;ratioP1;P1;durP2;ratioP2;P2;SDS_P1;SDS_P2;PMS_P1;PMS_P2;Temp;Humidity;BMP_temperature;BMP_pressure;BME280_temperature;BME280_humidity;BME280_pressure;Samples;Min_cycle;Max_cycle;Signal;HPM_P1;HPM_P2
2021/08/03 00:01:11;;;;;;;2.90;2.60;;;21.40;99.90;;;;;;5094707;28;20768;-69
2021/08/03 00:03:49;;;;;;;2.50;2.33;;;21.30;99.90;;;;;;5095993;28;20443;-69
2021/08/03 00:06:16;;;;;;;3.03;2.83;;;21.30;99.90;;;;;;5095901;28;20397;-66
2021/08/03 00:08:48;;;;;;;4.13;2.83;;;21.30;99.90;;;;;;5094169;28;20555;-69
2021/08/03 00:11:13;;;;;;;4.20;2.87;;;21.20;99.90;;;;;;5095757;28;20426;-66
2021/08/03 00:13:40;;;;;;;3.70;3.00;;;21.20;99.90;;;;;;5094323;28;20507;-70
2021/08/03 00:16:08;;;;;;;2.53;2.33;;;21.20;99.90;;;;;;5095652;28;20168;-65
2021/08/03 00:18:44;;;;;;;2.20;2.03;;;21.20;99.90;;;;;;5095637;28;20935;-66
2021/08/03 00:21:13;;;;;;;4.10;2.47;;;21.20;99.90;;;;;;5095562;28;20397;-70
2021/08/03 00:23:44;;;;;;;3.13;2.67;;;21.20;99.90;;;;;;5095493;28;20499;-66
2021/08/03 00:26:12;;;;;;;2.80;2.60;;;21.30;99.90;;;;;;5095527;28;20795;-66
2021/08/03 00:28:39;;;;;;;2.90;2.70;;;21.30;99.90;;;;;;5095542;28;20441;-65
2021/08/03 00:31:05;;;;;;;2.67;2.47;;;21.30;99.90;;;;;;5095174;28;20816;-70
2021/08/03 00:33:31;;;;;;;2.83;2.60;;;21.30;99.90;;;;;;5095302;28;20814;-70
2021/08/03 00:35:56;;;;;;;3.03;2.50;;;21.30;99.90;;;;;;5095261;28;20433;-68
2021/08/03 00:38:22;;;;;;;2.43;2.23;;;21.30;99.90;;;;;;5095261;28;20215;-70
2021/08/03 00:40:54;;;;;;;3.60;2.70;;;21.30;99.90;;;;;;5095159;28;20195;-65
2021/08/03 00:43:19;;;;;;;3.10;2.70;;;21.40;99.90;;;;;;5095093;28;20233;-66
2021/08/03 00:45:45;;;;;;;2.60;2.40;;;21.30;99.90;;;;;;5095016;28;20421;-66
2021/08/03 00:48:11;;;;;;;2.90;2.70;;;21.30;99.90;;;;;;5094998;28;20208;-70
2021/08/03 00:50:37;;;;;;;2.63;2.43;;;21.30;99.90;;;;;;5093603;28;20314;-70
2021/08/03 00:53:04;;;;;;;3.67;3.00;;;21.30;99.90;;;;;;5093676;28;20186;-69
2021/08/03 00:55:29;;;;;;;3.43;3.13;;;21.30;99.90;;;;;;5093577;28;20487;-69
2021/08/03 00:57:55;;;;;;;3.37;2.73;;;21.30;99.90;;;;;;5094741;28;20864;-70
2021/08/03 01:00:21;;;;;;;3.07;2.83;;;21.30;99.90;;;;;;5095332;28;20252;-70
2021/08/03 01:02:47;;;;;;;3.27;2.97;;;21.30;99.90;;;;;;5094697;28;20779;-66
2021/08/03 01:05:13;;;;;;;2.90;2.70;;;21.30;99.90;;;;;;5095120;28;20571;-66
2021/08/03 01:07:48;;;;;;;3.50;2.63;;;21.30;99.90;;;;;;5093398;28;20306;-66
2021/08/03 01:10:32;;;;;;;3.33;3.03;;;21.30;99.90;;;;;;5094325;28;20488;-70
2021/08/03 01:13:23;;;;;;;2.63;2.43;;;21.30;99.90;;;;;;5094512;28;20468;-65
2021/08/03 01:16:11;;;;;;;3.80;3.00;;;21.20;99.90;;;;;;5093253;28;20445;-66
2021/08/03 01:18:49;;;;;;;4.87;3.13;;;21.10;99.90;;;;;;5094575;28;20499;-66
2021/08/03 01:21:52;;;;;;;4.60;3.03;;;21.10;99.90;;;;;;5094460;28;20415;-66
2021/08/03 01:24:37;;;;;;;2.80;2.60;;;21.00;99.90;;;;;;5055227;28;20444;-70
2021/08/03 01:27:22;;;;;;;2.87;2.67;;;21.00;99.90;;;;;;5093258;28;20936;-69
2021/08/03 01:29:50;;;;;;;3.00;2.80;;;20.90;99.90;;;;;;5093077;28;20479;-70
2021/08/03 01:32:22;;;;;;;3.73;3.43;;;20.90;99.90;;;;;;5094217;28;20427;-66
2021/08/03 01:34:49;;;;;;;3.77;2.93;;;20.90;99.90;;;;;;5094180;28;20440;-70
2021/08/03 01:37:17;;;;;;;3.00;2.60;;;20.90;99.90;;;;;;5094185;28;20763;-66
2021/08/03 01:39:49;;;;;;;3.37;3.07;;;20.90;99.90;;;;;;5093837;28;20479;-66
2021/08/03 01:42:16;;;;;;;3.47;2.93;;;20.90;99.90;;;;;;5094152;28;20384;-66
2021/08/03 01:44:43;;;;;;;3.20;3.00;;;20.90;99.90;;;;;;5093971;28;20440;-66
2021/08/03 01:47:09;;;;;;;6.70;2.63;;;20.90;99.90;;;;;;5092749;28;21031;-65
2021/08/03 01:49:37;;;;;;;3.50;3.20;;;20.90;99.90;;;;;;5094292;28;20483;-66
2021/08/03 01:52:06;;;;;;;2.40;2.20;;;20.90;99.90;;;;;;5093932;28;20532;-69
2021/08/03 01:54:32;;;;;;;3.60;2.43;;;20.90;99.90;;;;;;5094212;28;20471;-65
2021/08/03 01:56:59;;;;;;;4.03;3.67;;;20.90;99.90;;;;;;5093792;28;20415;-66
2021/08/03 01:59:25;;;;;;;3.10;2.23;;;20.90;99.90;;;;;;5092543;28;20510;-70
2021/08/03 02:01:52;;;;;;;2.87;2.67;;;20.90;99.90;;;;;;5093812;28;20780;-70
2021/08/03 02:04:19;;;;;;;3.20;2.90;;;20.90;99.90;;;;;;5092549;28;20428;-66
2021/08/03 02:06:46;;;;;;;3.50;3.20;;;20.90;99.90;;;;;;5093743;28;20952;-65
2021/08/03 02:09:14;;;;;;;3.60;3.30;;;20.90;99.90;;;;;;5093243;28;20495;-65
2021/08/03 02:11:40;;;;;;;5.70;3.30;;;20.90;99.90;;;;;;5093692;28;20401;-70
2021/08/03 02:14:06;;;;;;;3.40;3.03;;;20.90;99.90;;;;;;5093707;28;20782;-65
2021/08/03 02:16:33;;;;;;;3.40;3.10;;;20.90;99.90;;;;;;5093758;28;20179;-66
2021/08/03 02:18:58;;;;;;;5.00;3.87;;;20.90;99.90;;;;;;5093693;28;20440;-69
2021/08/03 02:21:24;;;;;;;6.73;4.00;;;20.80;99.90;;;;;;5092342;28;20411;-70
2021/08/03 02:23:51;;;;;;;3.67;3.30;;;20.80;99.90;;;;;;5093634;28;20180;-66
2021/08/03 02:26:17;;;;;;;4.03;3.30;;;20.80;99.90;;;;;;5093570;28;20180;-70
2021/08/03 02:28:43;;;;;;;4.03;3.63;;;20.70;99.90;;;;;;5093548;28;20428;-69
2021/08/03 02:31:23;;;;;;;4.67;3.33;;;20.70;99.90;;;;;;5092124;28;20463;-66
2021/08/03 02:34:19;;;;;;;3.53;2.90;;;20.70;99.90;;;;;;5093629;28;20456;-66
2021/08/03 02:36:49;;;;;;;3.73;3.43;;;20.70;99.90;;;;;;5091004;28;20438;-69
2021/08/03 02:39:17;;;;;;;4.10;3.00;;;20.70;99.90;;;;;;5093603;28;20448;-66
2021/08/03 02:41:43;;;;;;;5.70;3.47;;;20.70;99.90;;;;;;5093480;28;20748;-66
2021/08/03 02:44:11;;;;;;;3.07;2.87;;;20.70;99.90;;;;;;5093491;28;20454;-66
2021/08/03 02:46:40;;;;;;;3.87;3.27;;;20.80;99.90;;;;;;5093415;28;20400;-70
2021/08/03 02:49:12;;;;;;;3.80;3.50;;;20.80;99.90;;;;;;5093526;28;20444;-66
2021/08/03 02:51:39;;;;;;;4.27;3.90;;;20.90;99.90;;;;;;5094235;28;20869;-66
2021/08/03 02:54:16;;;;;;;7.43;3.60;;;20.90;99.90;;;;;;5097363;28;20501;-70
2021/08/03 02:56:44;;;;;;;14.00;10.07;;;21.00;99.90;;;;;;5097318;28;20397;-70
2021/08/03 02:59:13;;;;;;;4.43;4.00;;;21.00;99.90;;;;;;5095855;28;20455;-66
2021/08/03 03:01:41;;;;;;;5.10;3.60;;;21.00;99.90;;;;;;5097147;28;20401;-70
2021/08/03 03:04:21;;;;;;;4.00;3.60;;;21.00;99.90;;;;;;5097176;28;20506;-66
2021/08/03 03:06:52;;;;;;;3.37;3.07;;;21.00;99.90;;;;;;5097087;28;20428;-66
2021/08/03 03:09:24;;;;;;;3.93;3.40;;;20.90;99.90;;;;;;5107700;28;20599;-66
2021/08/03 03:11:54;;;;;;;3.57;3.30;;;20.90;99.90;;;;;;5115061;28;20404;-70
2021/08/03 03:14:23;;;;;;;8.30;4.03;;;20.90;99.90;;;;;;5115286;28;20447;-66
2021/08/03 03:16:50;;;;;;;5.50;4.03;;;20.90;99.90;;;;;;5115175;28;20398;-66
2021/08/03 03:19:20;;;;;;;3.50;3.20;;;20.90;99.90;;;;;;5114845;28;20509;-71
2021/08/03 03:21:48;;;;;;;3.83;3.43;;;21.00;99.90;;;;;;5115128;28;20945;-70
2021/08/03 03:24:14;;;;;;;3.90;3.60;;;21.00;99.90;;;;;;5115021;28;20453;-70
2021/08/03 03:26:41;;;;;;;5.67;3.80;;;21.00;99.90;;;;;;5132940;27;20519;-66
2021/08/03 03:29:08;;;;;;;4.50;3.20;;;21.00;99.90;;;;;;5116956;28;20465;-70
2021/08/03 03:31:34;;;;;;;4.50;3.60;;;21.10;99.90;;;;;;5116904;28;20782;-66
2021/08/03 03:34:04;;;;;;;4.13;3.73;;;21.10;99.90;;;;;;5117039;28;20526;-66
2021/08/03 03:36:33;;;;;;;4.20;3.80;;;21.10;99.90;;;;;;5116746;28;20390;-66
2021/08/03 03:39:04;;;;;;;4.53;4.13;;;21.10;99.90;;;;;;5116904;28;20470;-67
2021/08/03 03:41:32;;;;;;;4.00;3.70;;;21.10;99.90;;;;;;5116864;28;20396;-67
2021/08/03 03:43:57;;;;;;;3.90;3.40;;;21.10;99.90;;;;;;5116558;28;20440;-66
2021/08/03 03:46:34;;;;;;;6.40;4.27;;;21.10;99.90;;;;;;5116827;28;20483;-68
2021/08/03 03:49:08;;;;;;;3.80;3.50;;;21.10;99.90;;;;;;5132418;27;20205;-67
2021/08/03 03:51:37;;;;;;;4.50;4.00;;;21.10;99.90;;;;;;5116561;28;20388;-70
2021/08/03 03:54:06;;;;;;;5.27;4.13;;;21.10;99.90;;;;;;5111428;28;20491;-70
2021/08/03 03:56:41;;;;;;;3.90;3.60;;;21.10;99.90;;;;;;5102658;28;20947;-66
2021/08/03 03:59:09;;;;;;;3.80;3.40;;;21.10;99.90;;;;;;5116146;28;20457;-70
2021/08/03 04:01:35;;;;;;;4.37;3.97;;;21.10;99.90;;;;;;5095362;28;20428;-66
2021/08/03 04:04:05;;;;;;;5.50;3.60;;;21.10;99.90;;;;;;5093524;28;20502;-69
2021/08/03 04:06:32;;;;;;;4.00;3.67;;;21.10;99.90;;;;;;5101358;28;20432;-70
2021/08/03 04:08:58;;;;;;;4.23;3.83;;;21.10;99.90;;;;;;5130185;27;20475;-70
2021/08/03 04:11:24;;;;;;;3.90;3.50;;;21.10;99.90;;;;;;5116184;28;20798;-70
2021/08/03 04:13:51;;;;;;;4.27;3.87;;;21.10;99.90;;;;;;5116218;28;20179;-67
2021/08/03 04:16:18;;;;;;;4.00;3.70;;;21.10;99.90;;;;;;5116125;28;20479;-70
2021/08/03 04:18:44;;;;;;;4.70;4.10;;;21.10;99.90;;;;;;5099127;28;20435;-67
2021/08/03 04:21:09;;;;;;;4.63;3.70;;;21.10;99.90;;;;;;5095591;28;20905;-66
2021/08/03 04:23:35;;;;;;;6.20;4.83;;;21.10;99.90;;;;;;5093805;28;20181;-66
2021/08/03 04:26:01;;;;;;;6.40;4.50;;;21.10;99.90;;;;;;5080504;28;20181;-70
2021/08/03 04:28:27;;;;;;;5.07;4.60;;;21.10;99.90;;;;;;5086287;28;20241;-70
2021/08/03 04:30:53;;;;;;;4.13;3.83;;;21.10;99.90;;;;;;5093954;28;20215;-69
2021/08/03 04:33:19;;;;;;;7.20;6.33;;;21.10;99.90;;;;;;5094144;28;20488;-66
2021/08/03 04:35:45;;;;;;;5.73;5.23;;;21.10;99.90;;;;;;5095256;28;20451;-70
2021/08/03 04:38:10;;;;;;;4.80;4.37;;;21.10;99.90;;;;;;5098999;28;20686;-66
2021/08/03 04:40:36;;;;;;;5.53;5.03;;;21.10;99.90;;;;;;5131113;27;20259;-70
2021/08/03 04:43:02;;;;;;;8.47;4.70;;;21.10;99.90;;;;;;5114767;28;20701;-70
2021/08/03 04:45:27;;;;;;;4.63;4.03;;;21.20;99.90;;;;;;5126622;27;20207;-70
2021/08/03 04:47:54;;;;;;;5.10;4.60;;;21.20;99.90;;;;;;5110972;28;20182;-70
2021/08/03 04:50:23;;;;;;;7.20;4.30;;;21.20;99.90;;;;;;5111022;28;20662;-70
2021/08/03 04:52:50;;;;;;;5.50;4.93;;;21.20;99.90;;;;;;5115351;28;20441;-70
2021/08/03 04:55:15;;;;;;;4.60;4.10;;;21.10;99.90;;;;;;5125526;27;21005;-66
2021/08/03 04:57:42;;;;;;;5.10;4.60;;;21.00;99.90;;;;;;5073668;28;20402;-70
2021/08/03 05:00:10;;;;;;;4.83;4.43;;;21.10;99.90;;;;;;5112415;28;20251;-66
2021/08/03 05:02:36;;;;;;;4.53;4.13;;;21.10;99.90;;;;;;5107436;27;20454;-70
2021/08/03 05:05:03;;;;;;;6.20;4.50;;;21.10;99.90;;;;;;5101186;28;20500;-70
2021/08/03 05:07:28;;;;;;;4.77;4.33;;;21.20;99.90;;;;;;5102212;28;20450;-70
2021/08/03 05:09:58;;;;;;;4.43;4.03;;;21.20;99.90;;;;;;5100540;28;20483;-70
2021/08/03 05:12:24;;;;;;;4.80;4.40;;;21.30;99.90;;;;;;5126138;27;20175;-66
2021/08/03 05:14:49;;;;;;;4.30;4.00;;;21.30;99.90;;;;;;5099792;28;21090;-70
2021/08/03 05:17:15;;;;;;;6.83;4.67;;;21.40;99.90;;;;;;5095910;28;20313;-70
2021/08/03 05:19:40;;;;;;;4.50;4.10;;;21.50;99.90;;;;;;5104558;28;20285;-66
2021/08/03 05:22:07;;;;;;;4.13;3.70;;;21.60;99.90;;;;;;5094300;28;20180;-70
2021/08/03 05:24:33;;;;;;;4.00;3.60;;;21.60;99.90;;;;;;5097312;28;20597;-71
2021/08/03 05:27:00;;;;;;;4.40;4.00;;;21.70;99.90;;;;;;5103147;28;20417;-66
2021/08/03 05:29:27;;;;;;;4.93;4.53;;;21.80;99.90;;;;;;5101898;28;20527;-66
2021/08/03 05:31:52;;;;;;;4.50;4.03;;;21.90;99.90;;;;;;5099577;28;20438;-70
2021/08/03 05:34:18;;;;;;;4.17;3.87;;;21.90;99.90;;;;;;5113739;28;20908;-67
2021/08/03 05:36:43;;;;;;;5.80;4.50;;;22.00;99.90;;;;;;5103691;28;20214;-71
2021/08/03 05:39:11;;;;;;;4.43;4.03;;;22.00;99.90;;;;;;5101188;28;20204;-66
2021/08/03 05:41:36;;;;;;;5.07;4.67;;;22.10;99.90;;;;;;5096931;28;20176;-70
2021/08/03 05:44:02;;;;;;;5.27;4.30;;;22.10;99.90;;;;;;5099459;28;20484;-70
2021/08/03 05:46:28;;;;;;;5.10;4.60;;;22.20;99.90;;;;;;5091420;28;20195;-66
2021/08/03 05:48:54;;;;;;;6.50;5.87;;;22.10;99.90;;;;;;5088787;28;20787;-70
2021/08/03 05:51:19;;;;;;;5.80;5.20;;;22.10;99.90;;;;;;5088317;28;20724;-70
2021/08/03 05:53:45;;;;;;;8.40;6.00;;;22.00;99.90;;;;;;5092418;28;20192;-71
2021/08/03 05:56:11;;;;;;;5.40;4.80;;;22.00;99.90;;;;;;5093894;28;20176;-66
2021/08/03 05:58:36;;;;;;;19.70;13.50;;;22.00;99.90;;;;;;5085341;28;20238;-66
2021/08/03 06:01:02;;;;;;;6.40;5.80;;;22.00;99.90;;;;;;5092284;28;21013;-70
2021/08/03 06:03:27;;;;;;;5.00;4.60;;;22.10;99.90;;;;;;5086858;28;20802;-68
2021/08/03 06:05:53;;;;;;;6.20;4.90;;;22.20;99.90;;;;;;5097500;28;20291;-69
2021/08/03 06:08:24;;;;;;;6.33;4.80;;;22.20;99.90;;;;;;5097105;28;20223;-70
2021/08/03 06:10:53;;;;;;;7.23;4.40;;;22.30;99.90;;;;;;5095089;28;20211;-66
2021/08/03 06:13:22;;;;;;;5.10;4.70;;;22.40;99.90;;;;;;5084676;28;20449;-66
2021/08/03 06:15:49;;;;;;;5.10;4.60;;;22.40;99.90;;;;;;5089680;28;20794;-66
2021/08/03 06:18:45;;;;;;;6.03;5.37;;;22.40;99.90;;;;;;5099757;28;20780;-66
2021/08/03 06:21:15;;;;;;;7.53;5.50;;;22.50;99.90;;;;;;5080061;28;20535;-66
2021/08/03 06:23:45;;;;;;;5.80;4.50;;;22.50;99.90;;;;;;5095941;28;20482;-66
2021/08/03 06:26:12;;;;;;;5.33;4.60;;;22.60;99.90;;;;;;5092528;28;20430;-70
2021/08/03 06:28:39;;;;;;;5.40;4.90;;;22.60;99.90;;;;;;5105256;28;20445;-66
2021/08/03 06:31:05;;;;;;;5.07;4.63;;;22.70;99.90;;;;;;5092461;28;20468;-66
2021/08/03 06:33:31;;;;;;;4.77;4.37;;;22.70;99.90;;;;;;5101718;28;20436;-66
2021/08/03 06:35:57;;;;;;;4.50;4.07;;;22.80;99.90;;;;;;5102874;27;20466;-71
2021/08/03 06:38:23;;;;;;;6.00;4.77;;;22.80;99.90;;;;;;5089097;28;20878;-66
2021/08/03 06:41:07;;;;;;;5.73;5.23;;;22.90;99.90;;;;;;5090812;28;20445;-71
2021/08/03 06:43:34;;;;;;;5.23;4.07;;;23.00;99.90;;;;;;5097300;28;20465;-70
2021/08/03 06:46:04;;;;;;;4.60;4.17;;;23.10;99.90;;;;;;5108057;27;20426;-70
2021/08/03 06:48:32;;;;;;;3.83;3.53;;;23.10;99.90;;;;;;5088882;28;20490;-70
2021/08/03 06:51:09;;;;;;;3.57;3.27;;;23.30;99.90;;;;;;5089166;28;20473;-66
2021/08/03 06:53:40;;;;;;;3.63;3.33;;;23.30;99.90;;;;;;5088109;28;20448;-70
2021/08/03 06:56:06;;;;;;;3.40;3.10;;;23.40;99.90;;;;;;5090188;28;20463;-71
2021/08/03 06:58:54;;;;;;;4.10;3.10;;;23.50;99.90;;;;;;5099457;28;20441;-71
2021/08/03 07:01:39;;;;;;;3.80;3.57;;;23.60;99.90;;;;;;5094580;28;20434;-67
2021/08/03 07:04:09;;;;;;;3.10;2.83;;;23.80;99.90;;;;;;5089333;28;20448;-67
2021/08/03 07:06:38;;;;;;;21.10;15.10;;;23.90;99.90;;;;;;5086286;28;20462;-67
2021/08/03 07:09:05;;;;;;;6.00;3.90;;;24.00;99.90;;;;;;5086641;28;20510;-71
2021/08/03 07:11:34;;;;;;;2.73;2.40;;;24.00;99.90;;;;;;5077359;27;20833;-71
2021/08/03 07:14:00;;;;;;;2.80;2.60;;;24.10;99.90;;;;;;5088789;28;20470;-67
2021/08/03 07:16:29;;;;;;;2.63;2.43;;;24.20;99.90;;;;;;5086731;28;20912;-68
2021/08/03 07:18:56;;;;;;;5.73;2.60;;;24.40;99.90;;;;;;5097410;28;20284;-71
2021/08/03 07:21:26;;;;;;;2.40;2.20;;;24.50;99.90;;;;;;5089827;28;20798;-71
2021/08/03 07:23:56;;;;;;;1.80;1.70;;;24.60;99.90;;;;;;5089800;28;20521;-69
2021/08/03 07:26:26;;;;;;;2.00;1.90;;;24.70;99.90;;;;;;5091595;28;20514;-71
2021/08/03 07:28:52;;;;;;;2.37;2.17;;;24.80;99.90;;;;;;5083461;28;20474;-71
2021/08/03 07:31:18;;;;;;;2.30;2.10;;;24.90;99.90;;;;;;5086108;28;20515;-67
2021/08/03 07:33:44;;;;;;;2.40;2.10;;;25.00;99.90;;;;;;5088124;28;20439;-72
2021/08/03 07:36:13;;;;;;;3.13;2.40;;;25.10;99.90;;;;;;5089611;28;20183;-71
2021/08/03 07:38:38;;;;;;;2.20;2.00;;;25.10;99.90;;;;;;5090297;28;20440;-67
2021/08/03 07:41:04;;;;;;;2.40;1.97;;;25.20;99.90;;;;;;5086185;28;20966;-71
2021/08/03 07:43:29;;;;;;;2.43;2.10;;;25.30;99.90;;;;;;5085836;28;20511;-71
2021/08/03 07:45:55;;;;;;;1.60;1.50;;;25.30;99.90;;;;;;5084910;28;20249;-66
2021/08/03 07:48:21;;;;;;;2.17;1.97;;;25.40;99.90;;;;;;5093424;28;20593;-65
2021/08/03 07:50:47;;;;;;;1.73;1.63;;;25.50;99.90;;;;;;5086717;28;20749;-70
2021/08/03 07:53:13;;;;;;;1.90;1.80;;;25.60;99.90;;;;;;5087292;28;20185;-66
2021/08/03 07:55:39;;;;;;;2.43;2.10;;;25.70;99.90;;;;;;5082148;28;20208;-70
2021/08/03 07:58:04;;;;;;;2.23;2.03;;;25.70;99.90;;;;;;5088245;28;20707;-71
2021/08/03 08:00:32;;;;;;;2.00;1.90;;;25.80;99.60;;;;;;5085215;28;20642;-66
2021/08/03 08:02:58;;;;;;;3.30;2.23;;;25.80;99.90;;;;;;5087810;28;20193;-70
2021/08/03 08:05:23;;;;;;;3.00;2.17;;;25.90;99.90;;;;;;5089967;28;21116;-71
2021/08/03 08:07:49;;;;;;;2.20;2.10;;;25.90;99.90;;;;;;5079649;28;20184;-66
2021/08/03 08:10:15;;;;;;;2.30;1.90;;;26.00;99.70;;;;;;5090352;28;20241;-70
2021/08/03 08:12:40;;;;;;;2.17;2.00;;;26.10;99.50;;;;;;5091452;28;20210;-66
2021/08/03 08:15:06;;;;;;;2.13;1.80;;;26.20;99.40;;;;;;5097955;28;20213;-66
2021/08/03 08:17:32;;;;;;;2.40;2.20;;;26.20;99.30;;;;;;5080257;28;20586;-67
2021/08/03 08:19:57;;;;;;;2.00;1.90;;;26.30;99.20;;;;;;5077783;28;20544;-73
2021/08/03 08:22:23;;;;;;;2.20;2.00;;;26.40;99.70;;;;;;5086671;28;20768;-67
2021/08/03 08:24:49;;;;;;;7.17;6.47;;;26.50;99.00;;;;;;5084592;28;20676;-72
2021/08/03 08:27:14;;;;;;;2.07;1.87;;;26.50;99.00;;;;;;5090382;28;20251;-67
2021/08/03 08:29:41;;;;;;;2.50;2.20;;;26.60;97.90;;;;;;5094257;28;20309;-71
2021/08/03 08:32:07;;;;;;;2.20;1.97;;;26.60;98.10;;;;;;5091581;28;20176;-68
2021/08/03 08:34:33;;;;;;;2.30;2.10;;;26.60;98.00;;;;;;5086430;28;20469;-71
2021/08/03 08:37:01;;;;;;;2.20;2.00;;;26.60;98.20;;;;;;5084507;28;20483;-72
2021/08/03 08:39:26;;;;;;;2.17;2.07;;;26.80;97.80;;;;;;5091927;28;20200;-67
2021/08/03 08:41:52;;;;;;;4.53;2.20;;;26.80;98.20;;;;;;5091224;28;20833;-71
2021/08/03 08:44:19;;;;;;;1.70;1.60;;;26.90;97.60;;;;;;5078293;28;20493;-71
2021/08/03 08:46:46;;;;;;;2.40;2.13;;;27.00;97.30;;;;;;5086945;28;20189;-67
2021/08/03 08:49:14;;;;;;;2.13;2.03;;;27.00;97.20;;;;;;5082465;28;20457;-67
2021/08/03 08:51:40;;;;;;;3.03;2.13;;;27.00;96.80;;;;;;5098808;28;20437;-67
2021/08/03 08:54:06;;;;;;;2.40;2.10;;;27.00;97.10;;;;;;5088435;28;20494;-72
2021/08/03 08:56:32;;;;;;;2.80;2.60;;;27.00;96.20;;;;;;5098394;28;20431;-68
2021/08/03 08:58:57;;;;;;;1.70;1.60;;;27.10;96.30;;;;;;5090320;28;20200;-68
2021/08/03 09:01:23;;;;;;;2.20;2.00;;;27.10;96.50;;;;;;5088700;28;20259;-71
2021/08/03 09:03:48;;;;;;;1.97;1.87;;;27.10;96.00;;;;;;5082825;28;20573;-68
2021/08/03 09:06:21;;;;;;;2.30;2.10;;;27.10;96.10;;;;;;5085481;28;20664;-71
2021/08/03 09:08:49;;;;;;;1.77;1.67;;;27.10;96.10;;;;;;5085518;28;20224;-72
2021/08/03 09:11:20;;;;;;;2.00;1.90;;;27.20;96.50;;;;;;5103882;28;20467;-67
2021/08/03 09:14:04;;;;;;;1.90;1.80;;;27.30;96.50;;;;;;5095647;28;20447;-67
2021/08/03 09:16:43;;;;;;;2.20;2.10;;;27.40;97.00;;;;;;5093717;28;20462;-72
2021/08/03 09:19:30;;;;;;;2.53;2.33;;;27.40;96.90;;;;;;5090919;28;20953;-68
2021/08/03 09:22:31;;;;;;;2.13;2.03;;;27.60;96.50;;;;;;5087871;28;20473;-67
2021/08/03 09:25:12;;;;;;;2.00;1.90;;;27.70;96.30;;;;;;5071977;28;20516;-67
2021/08/03 09:27:44;;;;;;;2.10;2.00;;;27.70;95.90;;;;;;5088363;28;20447;-67
2021/08/03 09:30:27;;;;;;;3.93;1.90;;;27.90;95.80;;;;;;5088505;28;20808;-72
2021/08/03 09:32:53;;;;;;;2.10;2.00;;;27.90;96.80;;;;;;5088292;28;20432;-71
2021/08/03 09:35:21;;;;;;;2.07;1.97;;;27.90;97.30;;;;;;5089847;28;20518;-67
2021/08/03 09:37:48;;;;;;;2.00;1.90;;;27.90;97.00;;;;;;5082968;28;20180;-71
2021/08/03 09:40:21;;;;;;;2.47;2.10;;;28.00;96.00;;;;;;5087647;28;20527;-67
2021/08/03 09:43:03;;;;;;;2.17;1.77;;;28.00;95.70;;;;;;5090517;28;20474;-67
2021/08/03 09:45:31;;;;;;;2.23;2.10;;;28.10;95.70;;;;;;5086027;28;20452;-67
2021/08/03 09:48:15;;;;;;;1.90;1.80;;;28.10;95.90;;;;;;5087139;28;20513;-72
2021/08/03 09:50:51;;;;;;;2.23;2.10;;;28.00;95.30;;;;;;5080510;28;20888;-71
2021/08/03 09:53:38;;;;;;;2.87;2.20;;;28.00;95.50;;;;;;5087499;28;20427;-72
2021/08/03 09:56:05;;;;;;;2.63;2.43;;;28.00;95.70;;;;;;5081494;28;20447;-68
2021/08/03 09:58:34;;;;;;;2.53;2.20;;;28.00;95.50;;;;;;5090032;28;20519;-72
2021/08/03 10:01:28;;;;;;;2.00;1.90;;;27.90;95.60;;;;;;5088451;28;20451;-71
2021/08/03 10:03:56;;;;;;;3.20;1.90;;;28.00;96.30;;;;;;5098852;28;20454;-67
2021/08/03 10:06:22;;;;;;;2.40;2.20;;;28.00;95.40;;;;;;5083345;28;20934;-72
2021/08/03 10:08:53;;;;;;;2.23;2.13;;;28.10;94.90;;;;;;5090682;28;20478;-71
2021/08/03 10:11:20;;;;;;;2.27;2.17;;;28.10;94.70;;;;;;5090417;28;20285;-67
2021/08/03 10:13:47;;;;;;;2.10;1.90;;;28.10;95.30;;;;;;5093462;28;20435;-71
2021/08/03 10:16:14;;;;;;;1.70;1.60;;;28.10;96.10;;;;;;5100785;28;20417;-67
2021/08/03 10:18:42;;;;;;;1.90;1.80;;;28.10;96.60;;;;;;5097537;28;20444;-67
2021/08/03 10:21:17;;;;;;;2.30;2.10;;;28.10;96.50;;;;;;5099757;28;20420;-64
2021/08/03 10:23:44;;;;;;;2.60;2.40;;;28.20;95.20;;;;;;5087416;28;20448;-68
2021/08/03 10:26:14;;;;;;;1.73;1.63;;;28.30;95.30;;;;;;5084309;28;20516;-66
2021/08/03 10:28:41;;;;;;;1.80;1.70;;;28.30;95.30;;;;;;5076828;28;20452;-69
2021/08/03 10:31:38;;;;;;;2.40;1.93;;;28.40;94.70;;;;;;5094941;28;20463;-67
2021/08/03 10:34:04;;;;;;;2.00;1.90;;;28.30;96.00;;;;;;5089781;28;20925;-66
2021/08/03 10:36:39;;;;;;;1.80;1.70;;;28.30;96.30;;;;;;5098008;28;20429;-67
2021/08/03 10:39:18;;;;;;;1.73;1.63;;;28.30;96.20;;;;;;5112377;28;20789;-71
2021/08/03 10:41:59;;;;;;;2.03;1.80;;;28.30;95.40;;;;;;5088313;28;20437;-69
2021/08/03 10:44:45;;;;;;;2.17;2.07;;;28.40;95.70;;;;;;5109424;28;20554;-71
2021/08/03 10:47:32;;;;;;;2.30;2.00;;;28.40;95.90;;;;;;5094338;28;20473;-72
2021/08/03 10:50:07;;;;;;;1.90;1.80;;;28.40;95.90;;;;;;5086735;28;20475;-72
2021/08/03 10:52:45;;;;;;;2.37;2.20;;;28.50;95.50;;;;;;5086279;28;20437;-72
2021/08/03 10:55:32;;;;;;;1.90;1.80;;;28.50;94.30;;;;;;5086134;28;20885;-67
2021/08/03 10:58:09;;;;;;;2.60;2.27;;;28.50;94.40;;;;;;5083955;28;20430;-67
2021/08/03 11:00:52;;;;;;;1.83;1.73;;;28.60;94.30;;;;;;5081503;28;20576;-66
2021/08/03 11:03:39;;;;;;;2.40;2.20;;;28.60;94.40;;;;;;5086985;28;20800;-65
2021/08/03 11:06:10;;;;;;;2.30;1.83;;;28.70;95.00;;;;;;5087896;28;20837;-72
2021/08/03 11:08:47;;;;;;;1.70;1.60;;;28.70;95.20;;;;;;5085819;28;20542;-73
2021/08/03 11:11:21;;;;;;;4.77;2.13;;;28.70;94.70;;;;;;5082142;28;20912;-67
2021/08/03 11:13:54;;;;;;;2.20;2.00;;;28.80;94.70;;;;;;5096558;28;20989;-72
2021/08/03 11:16:19;;;;;;;1.60;1.50;;;28.80;94.50;;;;;;5088778;28;20884;-67
2021/08/03 11:18:51;;;;;;;1.80;1.70;;;28.90;94.40;;;;;;5092200;28;20472;-67
2021/08/03 11:21:24;;;;;;;2.17;2.00;;;28.90;94.80;;;;;;5092658;28;20191;-66
2021/08/03 11:24:14;;;;;;;2.03;1.80;;;29.00;95.00;;;;;;5094300;28;20495;-72
2021/08/03 11:26:54;;;;;;;1.67;1.53;;;29.10;95.00;;;;;;5096375;28;20905;-67
2021/08/03 11:29:23;;;;;;;2.50;2.30;;;29.20;95.10;;;;;;5088458;28;20468;-67
2021/08/03 11:31:58;;;;;;;2.73;2.10;;;29.30;94.00;;;;;;5093302;28;20421;-67
2021/08/03 11:34:26;;;;;;;1.97;1.80;;;29.40;93.60;;;;;;5094325;28;20586;-70
2021/08/03 11:37:18;;;;;;;2.00;1.83;;;29.40;93.50;;;;;;5091318;28;20849;-72
2021/08/03 11:40:05;;;;;;;2.37;2.17;;;29.30;93.80;;;;;;5082055;28;20550;-71
2021/08/03 11:42:34;;;;;;;2.00;1.80;;;29.30;94.10;;;;;;5089479;28;20448;-67
2021/08/03 11:45:05;;;;;;;2.40;2.20;;;29.20;93.90;;;;;;5086202;28;20525;-67
2021/08/03 11:47:46;;;;;;;1.90;1.50;;;29.30;94.00;;;;;;5095392;28;20430;-67
2021/08/03 11:50:16;;;;;;;2.13;2.03;;;29.30;94.10;;;;;;5100684;28;20539;-69
2021/08/03 11:52:42;;;;;;;2.33;2.13;;;29.30;93.50;;;;;;5090056;28;20427;-71
2021/08/03 11:55:12;;;;;;;1.77;1.53;;;29.30;93.20;;;;;;5099275;28;20797;-71
2021/08/03 11:57:39;;;;;;;1.73;1.63;;;29.20;93.40;;;;;;5100877;28;20454;-67
2021/08/03 12:00:29;;;;;;;2.10;1.90;;;29.20;93.10;;;;;;5100962;28;20451;-67
2021/08/03 12:03:00;;;;;;;2.07;1.97;;;29.20;93.30;;;;;;5085886;28;20439;-67
2021/08/03 12:05:27;;;;;;;1.67;1.57;;;29.30;93.00;;;;;;5097019;28;20451;-67
2021/08/03 12:08:14;;;;;;;2.40;2.20;;;29.40;93.40;;;;;;5095246;28;20418;-66
2021/08/03 12:10:41;;;;;;;2.00;1.90;;;29.40;93.00;;;;;;5084228;28;21063;-71
2021/08/03 12:13:24;;;;;;;2.13;2.03;;;29.40;92.80;;;;;;5090370;28;20435;-72
2021/08/03 12:15:55;;;;;;;2.07;1.87;;;29.50;92.30;;;;;;5089294;28;20455;-67
2021/08/03 12:18:20;;;;;;;2.20;2.00;;;29.50;92.40;;;;;;5087574;28;20423;-67
2021/08/03 12:20:49;;;;;;;2.03;1.93;;;29.50;92.60;;;;;;5092201;28;20825;-67
2021/08/03 12:23:20;;;;;;;2.10;1.77;;;29.50;92.40;;;;;;5086551;28;20652;-73
2021/08/03 12:26:27;;;;;;;1.93;1.83;;;29.60;92.20;;;;;;5084731;28;20447;-72
2021/08/03 12:28:56;;;;;;;2.00;1.90;;;29.60;91.60;;;;;;5090956;28;20474;-72
2021/08/03 12:31:22;;;;;;;2.20;2.03;;;29.60;92.00;;;;;;5088054;27;20465;-71
2021/08/03 12:33:49;;;;;;;3.67;2.10;;;29.60;92.20;;;;;;5081125;28;20482;-67
2021/08/03 12:36:16;;;;;;;2.20;2.00;;;29.60;92.10;;;;;;5090158;28;20441;-67
2021/08/03 12:39:02;;;;;;;2.47;1.90;;;29.60;92.00;;;;;;5089428;28;20443;-71
2021/08/03 12:41:30;;;;;;;3.80;2.20;;;29.60;91.90;;;;;;5076982;28;20421;-71
2021/08/03 12:43:57;;;;;;;2.30;2.10;;;29.60;91.90;;;;;;5088022;28;20520;-68
2021/08/03 12:46:37;;;;;;;1.87;1.77;;;29.60;92.70;;;;;;5090213;28;20416;-67
2021/08/03 12:49:05;;;;;;;1.90;1.80;;;29.60;93.50;;;;;;5094634;28;20480;-72
2021/08/03 12:51:32;;;;;;;2.93;2.03;;;29.60;92.00;;;;;;5099746;28;20466;-71
2021/08/03 12:54:11;;;;;;;2.23;2.13;;;29.60;91.70;;;;;;5091016;28;20546;-71
2021/08/03 12:56:46;;;;;;;2.43;2.23;;;29.60;91.90;;;;;;5084931;28;20436;-67
2021/08/03 12:59:35;;;;;;;3.70;2.23;;;29.60;92.00;;;;;;5092825;28;20563;-67
2021/08/03 13:02:02;;;;;;;2.10;1.90;;;29.60;92.10;;;;;;5092175;28;20432;-71